Corvallis, OR (97330)

7:01 AM PDT on September 28, 2016 (GMT -0700)
Vineyard Mountain | | Change Station

Elev 1148 ft 44.64 °N, 123.27 °W | Updated 9 seconds ago

Clear
Clear
54.1 °F
Feels Like 54.1 °F
N
0.9
Wind Variable Wind from NNW
Gusts 2.5 mph

Today
High -- | Low -- °F
--% Chance of Precip.
Yesterday
High -- | Low -- °F
Precip. -- in
Pressure 30.05 in
Visibility 10.0 miles
Clouds Clear
Dew Point 41 °F
Humidity 61%
Rainfall 0.00 in
Snow Depth Not available.
7:08 AM 6:58 PM
Waning Crescent, 6% visible
METAR KSLE 281356Z 00000KT 10SM CLR 09/06 A3005 RMK AO2 SLP176 T00940061
Pressure 30.05 in
Visibility 10.0 miles
Clouds Clear
Dew Point 41 °F
Humidity 61%
Rainfall 0.00 in
Snow Depth Not available.
7:08 AM 6:58 PM
Waning Crescent, 6% visible
METAR KSLE 281356Z 00000KT 10SM CLR 09/06 A3005 RMK AO2 SLP176 T00940061

10-Day Weather Forecast

Almanac

Astronomy

Sep. 28, 2016 Rise Set
Actual Time
Civil Twilight
Nautical Twilight
Astronomical Twilight
Moon
Length of Visible Light
Length of Day
Tomorrow will be .
, % of the Moon is Illuminated

Today's Extremes

State Highs State Lows

Community

WunderPhotos

Upload Photos

1,942,265 photos uploaded!

WunderBlog® & News

Nearby

Air Quality

  Air Quality AQ Index Pollutant
Not available.

Snow Depth

Station Depth Elevation

Earthquake Activity

City Distance Mag. Time & Date
Minimum magnitude displayed is 2.5.

Coastal Water Temperatures

Place Temperature

Stations

Nearby Weather Stations

Station Location Temp. Windchill Dew Point Humidity Wind Precip. Elev Updated Type
                   

Watches & Warnings

There are currently no watches in effect.